Historyczne dane pomiarowe

Dodano dane terminowe – wersja testowa.

Dane z okresu 1951-2019

Wersja bazy: 1.34 [2019-03-16, lista zmian], aktualizacja planowana na 2019-04-15

Dane meteo z obszaru Polski uzyskane na podstawie danych udostępnionych przez Instytut Meteorologii i Gospodarki Wodnej – Państwowy Instytut Badawczy.

 

Wybierz Datę:    

       

TemperaturaWilgotnośćZachmurzenieWiatrCiśnienieWidzialnośćZjawiska
 Data    tng td wb rh cc ccl cl cm ch dir g1 g2 mslp ppp      
1999-07-01 00:00:00 15.1--- 14.4 14.796wxwx3wx--1017.3 992.8 0.0---wx
1999-07-01 01:00:00 14.7--- 14.0 14.396wxwx2wx--1017.1 992.6----wx
1999-07-01 02:00:00 14.3--- 13.8 14.097wxwxwx2wx--1017.2 992.6----wx
1999-07-01 03:00:00 13.9--- 13.4 13.697wxwxwx2wx--1017.5 992.9----wx
1999-07-01 04:00:00 14.6--- 13.9 14.296wxwxwx2wx--1017.7 993.2----wx
1999-07-01 05:00:00 16.4--- 15.3 15.793wxwxwx1wx--1017.7 993.3----wx
1999-07-01 06:00:00 18.0--- 15.9 16.788wxwxwx3wx--1017.9 993.6 0.0---wx
1999-07-01 07:00:00 19.4--- 16.1 17.381wxwxwx4wx--1017.9 993.7----wx
1999-07-01 08:00:00 20.8--- 16.6 18.177wxwxwxwx3wx--1017.9 993.9----wx
1999-07-01 09:00:00 22.3--- 17.9 19.476wxwxwxwx3wx--1017.9 994.0----wx
1999-07-01 10:00:00 23.4--- 17.6 19.670wxwxwx3wx--1017.5 993.7----wx
1999-07-01 11:00:00 20.0--- 16.7 17.982wxwxwx6wx--1018.0 993.9----wx
1999-07-01 12:00:00 18.0--- 17.1 17.494wxwxwxwx2wx--1018.4 994.1 11.8---wx
1999-07-01 13:00:00 18.8--- 16.4 17.386wxwxwxwx3wx--1017.7 993.5----wxw1
1999-07-01 14:00:00 21.8--- 18.3 19.581wxwxwxwx2wx--1017.2 993.3----wx
1999-07-01 15:00:00 21.2--- 16.9 18.476wxwxwxwxwx4wx--1016.9 992.9----wxw1
1999-07-01 16:00:00 20.5--- 16.9 18.280wxwxwxwxwx9wx--1016.8 992.8----wx
1999-07-01 17:00:00 20.0--- 16.6 17.881wxwxwxwxwx2wx--1016.9 992.8----wx
1999-07-01 18:00:00 20.4--- 16.5 17.978wxwxwxwx2wx--1016.8 992.8 0.4---wxw1
1999-07-01 19:00:00 17.4--- 16.3 16.793wxwxwxwx3wx--1017.7 993.4----wx
1999-07-01 20:00:00 16.0--- 14.9 15.393wxwxwxwx3wx--1018.0 993.6----wx
1999-07-01 21:00:00 15.6--- 14.5 14.993wxwxwx1wx--1017.9 993.4----wx
1999-07-01 22:00:00 15.4--- 14.6 14.995wxwxwx1wx--1017.7 993.2----wx
1999-07-01 23:00:00 15.1--- 14.1 14.594wxwxwx3wx--1017.5 993.0----wx

 

Źródłem pochodzenia danych jest Instytut Meteorologii i Gospodarki Wodnej – Państwowy Instytut Badawczy. Dane Instytutu Meteorologii i Gospodarki Wodnej – Państwowego Instytutu Badawczego zostały przetworzone.

Dane źródłowe można odnaleźć na stronie https://dane.imgw.pl